sensor_id;sensor_type;location;lat;lon;timestamp;pressure;altitude;pressure_sealevel;temperature;humidity
6435;BME280;3250;42.694;23.278;2023-12-07T00:00:11;94464.16;;;7.47;93.39
6435;BME280;3250;42.694;23.278;2023-12-07T00:02:37;94467.78;;;7.46;93.22
6435;BME280;3250;42.694;23.278;2023-12-07T00:05:02;94468.78;;;7.39;93.60
6435;BME280;3250;42.694;23.278;2023-12-07T00:07:28;94472.81;;;7.35;93.87
6435;BME280;3250;42.694;23.278;2023-12-07T00:09:54;94474.22;;;7.37;94.19
6435;BME280;3250;42.694;23.278;2023-12-07T00:12:19;94471.41;;;7.39;93.63
6435;BME280;3250;42.694;23.278;2023-12-07T00:14:45;94472.19;;;7.39;93.57
6435;BME280;3250;42.694;23.278;2023-12-07T00:17:11;94479.63;;;7.36;93.19
6435;BME280;3250;42.694;23.278;2023-12-07T00:19:37;94475.81;;;7.38;93.65
6435;BME280;3250;42.694;23.278;2023-12-07T00:22:02;94455.06;;;7.24;93.48
6435;BME280;3250;42.694;23.278;2023-12-07T00:24:28;94476.63;;;7.39;93.47
6435;BME280;3250;42.694;23.278;2023-12-07T00:26:54;94459.31;;;7.31;93.17
6435;BME280;3250;42.694;23.278;2023-12-07T00:29:19;94479.25;;;7.39;94.01
6435;BME280;3250;42.694;23.278;2023-12-07T00:31:45;94472.41;;;7.44;93.85
6435;BME280;3250;42.694;23.278;2023-12-07T00:34:10;94478.22;;;7.27;92.82
6435;BME280;3250;42.694;23.278;2023-12-07T00:36:36;94475.00;;;7.25;93.47
6435;BME280;3250;42.694;23.278;2023-12-07T00:39:01;94470.97;;;7.15;93.60
6435;BME280;3250;42.694;23.278;2023-12-07T00:41:27;94470.56;;;7.12;93.95
6435;BME280;3250;42.694;23.278;2023-12-07T00:43:52;94475.22;;;7.16;94.31
6435;BME280;3250;42.694;23.278;2023-12-07T00:46:18;94480.03;;;7.19;94.57
6435;BME280;3250;42.694;23.278;2023-12-07T00:48:43;94465.94;;;7.20;94.10
6435;BME280;3250;42.694;23.278;2023-12-07T00:51:09;94477.03;;;7.36;94.15
6435;BME280;3250;42.694;23.278;2023-12-07T00:53:35;94474.41;;;7.36;93.89
6435;BME280;3250;42.694;23.278;2023-12-07T00:56:02;94463.94;;;7.36;93.64
6435;BME280;3250;42.694;23.278;2023-12-07T00:58:28;94465.34;;;7.32;93.79
6435;BME280;3250;42.694;23.278;2023-12-07T01:00:53;94443.81;;;7.16;93.99
6435;BME280;3250;42.694;23.278;2023-12-07T01:03:19;94469.97;;;7.30;93.85
6435;BME280;3250;42.694;23.278;2023-12-07T01:05:44;94465.97;;;7.34;93.97
6435;BME280;3250;42.694;23.278;2023-12-07T01:08:10;94466.78;;;7.34;93.24
6435;BME280;3250;42.694;23.278;2023-12-07T01:10:36;94463.34;;;7.34;93.45
6435;BME280;3250;42.694;23.278;2023-12-07T01:13:02;94463.13;;;7.29;93.99
6435;BME280;3250;42.694;23.278;2023-12-07T01:15:27;94466.16;;;7.32;93.84
6435;BME280;3250;42.694;23.278;2023-12-07T01:17:53;94469.97;;;7.36;93.25
6435;BME280;3250;42.694;23.278;2023-12-07T01:20:18;94467.97;;;7.38;93.00
6435;BME280;3250;42.694;23.278;2023-12-07T01:22:45;94464.97;;;7.35;93.12
6435;BME280;3250;42.694;23.278;2023-12-07T01:25:11;94468.97;;;7.37;92.85
6435;BME280;3250;42.694;23.278;2023-12-07T01:27:37;94468.78;;;7.32;93.12
6435;BME280;3250;42.694;23.278;2023-12-07T01:30:04;94463.75;;;7.31;92.79
6435;BME280;3250;42.694;23.278;2023-12-07T01:32:30;94460.50;;;7.29;93.05
6435;BME280;3250;42.694;23.278;2023-12-07T01:34:55;94462.94;;;7.30;93.73
6435;BME280;3250;42.694;23.278;2023-12-07T01:37:21;94460.13;;;7.32;93.98
6435;BME280;3250;42.694;23.278;2023-12-07T01:39:46;94451.25;;;7.26;93.63
6435;BME280;3250;42.694;23.278;2023-12-07T01:42:12;94456.88;;;7.30;93.52
6435;BME280;3250;42.694;23.278;2023-12-07T01:44:38;94450.03;;;7.29;93.21
6435;BME280;3250;42.694;23.278;2023-12-07T01:47:04;94458.31;;;7.39;93.01
6435;BME280;3250;42.694;23.278;2023-12-07T01:49:31;94442.78;;;7.24;92.98
6435;BME280;3250;42.694;23.278;2023-12-07T01:51:57;94456.50;;;7.33;93.16
6435;BME280;3250;42.694;23.278;2023-12-07T01:54:23;94456.28;;;7.28;92.98
6435;BME280;3250;42.694;23.278;2023-12-07T01:56:50;94451.47;;;7.25;93.16
6435;BME280;3250;42.694;23.278;2023-12-07T01:59:15;94455.69;;;7.26;93.54
6435;BME280;3250;42.694;23.278;2023-12-07T02:01:41;94449.41;;;7.27;93.77
6435;BME280;3250;42.694;23.278;2023-12-07T02:04:06;94454.25;;;7.30;93.24
6435;BME280;3250;42.694;23.278;2023-12-07T02:06:32;94449.41;;;7.27;92.80
6435;BME280;3250;42.694;23.278;2023-12-07T02:08:57;94447.63;;;7.20;93.31
6435;BME280;3250;42.694;23.278;2023-12-07T02:11:23;94451.84;;;7.22;93.11
6435;BME280;3250;42.694;23.278;2023-12-07T02:13:48;94458.28;;;7.19;93.31
6435;BME280;3250;42.694;23.278;2023-12-07T02:16:25;94450.22;;;7.14;93.29
6435;BME280;3250;42.694;23.278;2023-12-07T02:21:42;94446.56;;;7.02;94.26
6435;BME280;3250;42.694;23.278;2023-12-07T02:24:11;94431.88;;;6.81;94.55
6435;BME280;3250;42.694;23.278;2023-12-07T02:26:53;94441.75;;;6.99;94.63
6435;BME280;3250;42.694;23.278;2023-12-07T02:29:19;94439.94;;;6.99;94.35
6435;BME280;3250;42.694;23.278;2023-12-07T02:31:44;94439.53;;;7.02;94.59
6435;BME280;3250;42.694;23.278;2023-12-07T02:50:52;94439.56;;;7.29;94.56
6435;BME280;3250;42.694;23.278;2023-12-07T02:53:18;94443.19;;;7.28;93.95
6435;BME280;3250;42.694;23.278;2023-12-07T02:55:43;94438.75;;;7.22;94.02
6435;BME280;3250;42.694;23.278;2023-12-07T02:58:08;94440.38;;;7.23;94.22
6435;BME280;3250;42.694;23.278;2023-12-07T03:00:34;94429.91;;;7.23;93.83
6435;BME280;3250;42.694;23.278;2023-12-07T03:02:59;94434.13;;;7.24;94.03
6435;BME280;3250;42.694;23.278;2023-12-07T03:05:25;94442.78;;;7.24;94.03
6435;BME280;3250;42.694;23.278;2023-12-07T03:07:50;94441.56;;;7.27;94.02
6435;BME280;3250;42.694;23.278;2023-12-07T03:10:16;94437.75;;;7.29;93.61
6435;BME280;3250;42.694;23.278;2023-12-07T03:12:41;94442.19;;;7.22;93.33
6435;BME280;3250;42.694;23.278;2023-12-07T03:15:07;94437.16;;;7.20;92.91
6435;BME280;3250;42.694;23.278;2023-12-07T03:17:34;94445.41;;;7.24;93.05
6435;BME280;3250;42.694;23.278;2023-12-07T03:20:00;94447.03;;;7.25;93.14
6435;BME280;3250;42.694;23.278;2023-12-07T03:22:25;94447.59;;;7.27;92.95
6435;BME280;3250;42.694;23.278;2023-12-07T03:24:52;94448.41;;;7.28;92.84
6435;BME280;3250;42.694;23.278;2023-12-07T03:27:18;94448.41;;;7.21;93.04
6435;BME280;3250;42.694;23.278;2023-12-07T03:29:43;94458.50;;;7.17;92.53
6435;BME280;3250;42.694;23.278;2023-12-07T03:32:09;94460.50;;;7.15;92.88
6435;BME280;3250;42.694;23.278;2023-12-07T03:34:34;94460.50;;;7.09;92.60
6435;BME280;3250;42.694;23.278;2023-12-07T03:37:00;94465.75;;;7.09;92.69
6435;BME280;3250;42.694;23.278;2023-12-07T03:39:25;94459.47;;;7.10;93.04
6435;BME280;3250;42.694;23.278;2023-12-07T03:41:51;94448.59;;;7.00;92.69
6435;BME280;3250;42.694;23.278;2023-12-07T03:44:17;94468.56;;;7.14;92.88
6435;BME280;3250;42.694;23.278;2023-12-07T03:46:42;94467.53;;;7.15;92.97
6435;BME280;3250;42.694;23.278;2023-12-07T03:49:08;94460.91;;;7.19;92.91
6435;BME280;3250;42.694;23.278;2023-12-07T03:51:34;94462.94;;;7.24;92.97
6435;BME280;3250;42.694;23.278;2023-12-07T03:54:01;94449.63;;;7.18;92.88
6435;BME280;3250;42.694;23.278;2023-12-07T03:56:29;94461.72;;;7.33;93.34
6435;BME280;3250;42.694;23.278;2023-12-07T03:58:55;94460.31;;;7.30;92.88
6435;BME280;3250;42.694;23.278;2023-12-07T04:01:25;94457.09;;;7.28;92.47
6435;BME280;3250;42.694;23.278;2023-12-07T04:03:52;94458.09;;;7.27;92.44
6435;BME280;3250;42.694;23.278;2023-12-07T04:06:18;94454.66;;;7.27;92.27
6435;BME280;3250;42.694;23.278;2023-12-07T04:08:44;94461.13;;;7.31;92.61
6435;BME280;3250;42.694;23.278;2023-12-07T04:11:10;94450.22;;;7.20;92.75
6435;BME280;3250;42.694;23.278;2023-12-07T04:13:36;94461.94;;;7.31;92.56
6435;BME280;3250;42.694;23.278;2023-12-07T04:16:01;94462.94;;;7.30;92.75
6435;BME280;3250;42.694;23.278;2023-12-07T04:18:28;94447.22;;;7.17;93.08
6435;BME280;3250;42.694;23.278;2023-12-07T04:20:54;94469.78;;;7.31;93.43
6435;BME280;3250;42.694;23.278;2023-12-07T04:23:19;94475.63;;;7.33;92.77
6435;BME280;3250;42.694;23.278;2023-12-07T04:25:44;94471.41;;;7.32;92.83
6435;BME280;3250;42.694;23.278;2023-12-07T04:28:10;94481.06;;;7.32;92.71
6435;BME280;3250;42.694;23.278;2023-12-07T04:30:35;94479.63;;;7.23;92.94
6435;BME280;3250;42.694;23.278;2023-12-07T04:33:01;94479.03;;;7.20;93.22
6435;BME280;3250;42.694;23.278;2023-12-07T04:35:26;94477.81;;;7.16;93.71
6435;BME280;3250;42.694;23.278;2023-12-07T04:37:53;94486.69;;;7.22;93.28
6435;BME280;3250;42.694;23.278;2023-12-07T04:40:19;94488.28;;;7.23;93.95
6435;BME280;3250;42.694;23.278;2023-12-07T04:42:44;94475.78;;;7.18;93.43
6435;BME280;3250;42.694;23.278;2023-12-07T04:45:10;94489.91;;;7.24;93.79
6435;BME280;3250;42.694;23.278;2023-12-07T04:47:36;94493.53;;;7.23;93.32
6435;BME280;3250;42.694;23.278;2023-12-07T04:50:01;94486.69;;;7.22;92.74
6435;BME280;3250;42.694;23.278;2023-12-07T04:52:27;94492.09;;;7.20;92.61
6435;BME280;3250;42.694;23.278;2023-12-07T04:54:52;94490.50;;;7.19;92.63
6435;BME280;3250;42.694;23.278;2023-12-07T04:57:18;94496.53;;;7.20;93.00
6435;BME280;3250;42.694;23.278;2023-12-07T04:59:43;94492.72;;;7.16;92.77
6435;BME280;3250;42.694;23.278;2023-12-07T05:02:15;94495.72;;;7.19;93.13
6435;BME280;3250;42.694;23.278;2023-12-07T05:04:42;94497.75;;;7.17;92.94
6435;BME280;3250;42.694;23.278;2023-12-07T05:07:08;94498.34;;;7.19;92.88
6435;BME280;3250;42.694;23.278;2023-12-07T05:09:33;94506.19;;;7.19;92.92
6435;BME280;3250;42.694;23.278;2023-12-07T05:11:59;94500.16;;;7.19;92.73
6435;BME280;3250;42.694;23.278;2023-12-07T05:14:24;94503.00;;;7.17;92.58
6435;BME280;3250;42.694;23.278;2023-12-07T05:16:50;94504.38;;;7.20;92.57
6435;BME280;3250;42.694;23.278;2023-12-07T05:19:20;94511.44;;;7.19;92.79
6435;BME280;3250;42.694;23.278;2023-12-07T05:21:46;94510.44;;;7.20;92.69
6435;BME280;3250;42.694;23.278;2023-12-07T05:24:13;94491.09;;;7.08;92.61
6435;BME280;3250;42.694;23.278;2023-12-07T05:26:41;94497.94;;;7.16;92.67
6435;BME280;3250;42.694;23.278;2023-12-07T05:29:06;94521.72;;;7.21;92.52
6435;BME280;3250;42.694;23.278;2023-12-07T05:31:32;94520.72;;;7.22;92.54
6435;BME280;3250;42.694;23.278;2023-12-07T05:33:57;94525.13;;;7.22;92.70
6435;BME280;3250;42.694;23.278;2023-12-07T05:36:22;94522.53;;;7.22;92.66
6435;BME280;3250;42.694;23.278;2023-12-07T05:38:48;94521.53;;;7.23;92.33
6435;BME280;3250;42.694;23.278;2023-12-07T05:41:14;94530.97;;;7.24;92.43
6435;BME280;3250;42.694;23.278;2023-12-07T05:43:42;94525.16;;;7.28;92.26
6435;BME280;3250;42.694;23.278;2023-12-07T05:46:08;94525.13;;;7.22;92.83
6435;BME280;3250;42.694;23.278;2023-12-07T05:48:33;94529.38;;;7.23;93.08
6435;BME280;3250;42.694;23.278;2023-12-07T05:50:59;94527.94;;;7.27;93.11
6435;BME280;3250;42.694;23.278;2023-12-07T05:53:24;94523.53;;;7.27;92.94
6435;BME280;3250;42.694;23.278;2023-12-07T05:55:50;94529.97;;;7.25;93.06
6435;BME280;3250;42.694;23.278;2023-12-07T05:58:16;94528.97;;;7.26;93.33
6435;BME280;3250;42.694;23.278;2023-12-07T06:00:43;94534.41;;;7.31;93.21
6435;BME280;3250;42.694;23.278;2023-12-07T06:03:09;94538.47;;;7.33;92.96
6435;BME280;3250;42.694;23.278;2023-12-07T06:05:37;94534.63;;;7.36;93.12
6435;BME280;3250;42.694;23.278;2023-12-07T06:08:03;94539.47;;;7.39;92.61
6435;BME280;3250;42.694;23.278;2023-12-07T06:10:29;94531.41;;;7.34;92.94
6435;BME280;3250;42.694;23.278;2023-12-07T06:12:55;94544.50;;;7.40;92.99
6435;BME280;3250;42.694;23.278;2023-12-07T06:15:22;94539.66;;;7.44;92.67
6435;BME280;3250;42.694;23.278;2023-12-07T06:17:48;94540.09;;;7.47;92.95
6435;BME280;3250;42.694;23.278;2023-12-07T06:20:13;94544.13;;;7.50;92.61
6435;BME280;3250;42.694;23.278;2023-12-07T06:22:39;94543.72;;;7.53;92.96
6435;BME280;3250;42.694;23.278;2023-12-07T06:25:05;94541.50;;;7.56;92.91
6435;BME280;3250;42.694;23.278;2023-12-07T06:27:30;94533.84;;;7.55;92.46
6435;BME280;3250;42.694;23.278;2023-12-07T06:29:56;94542.50;;;7.55;92.67
6435;BME280;3250;42.694;23.278;2023-12-07T06:32:21;94538.88;;;7.56;92.55
6435;BME280;3250;42.694;23.278;2023-12-07T06:34:47;94543.50;;;7.61;92.48
6435;BME280;3250;42.694;23.278;2023-12-07T06:37:12;94544.75;;;7.65;92.95
6435;BME280;3250;42.694;23.278;2023-12-07T06:39:38;94538.88;;;7.56;92.81
6435;BME280;3250;42.694;23.278;2023-12-07T06:42:04;94554.84;;;7.68;92.46
6435;BME280;3250;42.694;23.278;2023-12-07T06:44:29;94560.47;;;7.72;92.23
6435;BME280;3250;42.694;23.278;2023-12-07T06:46:55;94545.16;;;7.75;92.30
6435;BME280;3250;42.694;23.278;2023-12-07T06:49:20;94553.22;;;7.74;92.20
6435;BME280;3250;42.694;23.278;2023-12-07T06:51:45;94564.09;;;7.77;92.41
6435;BME280;3250;42.694;23.278;2023-12-07T06:54:11;94559.25;;;7.81;92.21
6435;BME280;3250;42.694;23.278;2023-12-07T06:56:36;94564.09;;;7.84;91.90
6435;BME280;3250;42.694;23.278;2023-12-07T06:59:02;94568.16;;;7.86;91.53
6435;BME280;3250;42.694;23.278;2023-12-07T07:01:27;94562.28;;;7.84;91.45
6435;BME280;3250;42.694;23.278;2023-12-07T07:03:53;94559.88;;;7.89;91.75
6435;BME280;3250;42.694;23.278;2023-12-07T07:06:18;94568.16;;;7.93;91.37
6435;BME280;3250;42.694;23.278;2023-12-07T07:08:44;94566.13;;;7.95;91.37
6435;BME280;3250;42.694;23.278;2023-12-07T07:11:13;94553.00;;;7.88;91.26
6435;BME280;3250;42.694;23.278;2023-12-07T07:13:41;94566.13;;;8.02;91.13
6435;BME280;3250;42.694;23.278;2023-12-07T07:16:08;94551.19;;;7.89;91.21
6435;BME280;3250;42.694;23.278;2023-12-07T07:18:34;94568.94;;;8.00;90.87
6435;BME280;3250;42.694;23.278;2023-12-07T07:21:00;94573.00;;;8.03;91.09
6435;BME280;3250;42.694;23.278;2023-12-07T07:23:26;94574.59;;;8.04;90.77
6435;BME280;3250;42.694;23.278;2023-12-07T07:25:51;94582.06;;;8.00;90.84
6435;BME280;3250;42.694;23.278;2023-12-07T07:28:17;94578.81;;;7.98;90.85
6435;BME280;3250;42.694;23.278;2023-12-07T07:30:43;94566.53;;;7.85;90.71
6435;BME280;3250;42.694;23.278;2023-12-07T07:33:08;94587.91;;;7.95;90.66
6435;BME280;3250;42.694;23.278;2023-12-07T07:35:34;94591.31;;;7.96;90.14
6435;BME280;3250;42.694;23.278;2023-12-07T07:37:59;94590.72;;;7.94;89.93
6435;BME280;3250;42.694;23.278;2023-12-07T07:40:24;94591.91;;;7.91;89.93
6435;BME280;3250;42.694;23.278;2023-12-07T07:42:50;94605.84;;;7.85;89.80
6435;BME280;3250;42.694;23.278;2023-12-07T07:45:16;94602.78;;;7.75;88.77
6435;BME280;3250;42.694;23.278;2023-12-07T07:47:41;94597.50;;;7.62;88.75
6435;BME280;3250;42.694;23.278;2023-12-07T07:50:07;94584.22;;;7.50;89.00
6435;BME280;3250;42.694;23.278;2023-12-07T07:52:34;94582.19;;;7.46;89.18
6435;BME280;3250;42.694;23.278;2023-12-07T07:55:05;94601.94;;;7.48;89.51
6435;BME280;3250;42.694;23.278;2023-12-07T07:57:31;94606.75;;;7.45;90.50
6435;BME280;3250;42.694;23.278;2023-12-07T07:59:57;94597.88;;;7.39;90.43
6435;BME280;3250;42.694;23.278;2023-12-07T08:02:23;94617.25;;;7.51;89.86
6435;BME280;3250;42.694;23.278;2023-12-07T08:04:49;94618.25;;;7.50;90.04
6435;BME280;3250;42.694;23.278;2023-12-07T08:07:15;94606.72;;;7.38;89.89
6435;BME280;3250;42.694;23.278;2023-12-07T08:09:40;94610.97;;;7.39;89.70
6435;BME280;3250;42.694;23.278;2023-12-07T08:12:06;94607.28;;;7.20;89.31
6435;BME280;3250;42.694;23.278;2023-12-07T08:14:35;94624.78;;;7.20;89.15
6435;BME280;3250;42.694;23.278;2023-12-07T08:17:01;94610.63;;;7.01;89.50
6435;BME280;3250;42.694;23.278;2023-12-07T08:19:26;94625.56;;;7.07;90.00
6435;BME280;3250;42.694;23.278;2023-12-07T08:21:52;94633.22;;;7.09;89.88
6435;BME280;3250;42.694;23.278;2023-12-07T08:24:17;94623.91;;;7.00;90.32
6435;BME280;3250;42.694;23.278;2023-12-07T08:26:43;94637.53;;;6.89;89.67
6435;BME280;3250;42.694;23.278;2023-12-07T08:29:08;94631.41;;;6.75;89.47
6435;BME280;3250;42.694;23.278;2023-12-07T08:31:34;94641.50;;;6.78;89.99
6435;BME280;3250;42.694;23.278;2023-12-07T08:33:59;94639.88;;;6.77;90.19
6435;BME280;3250;42.694;23.278;2023-12-07T08:36:26;94647.97;;;6.82;90.02
6435;BME280;3250;42.694;23.278;2023-12-07T08:38:51;94649.59;;;6.83;89.29
6435;BME280;3250;42.694;23.278;2023-12-07T08:41:18;94648.38;;;6.86;89.21
6435;BME280;3250;42.694;23.278;2023-12-07T08:43:43;94652.22;;;6.83;89.08
6435;BME280;3250;42.694;23.278;2023-12-07T08:46:09;94639.41;;;6.67;88.38
6435;BME280;3250;42.694;23.278;2023-12-07T08:48:36;94648.31;;;6.72;89.13
6435;BME280;3250;42.694;23.278;2023-12-07T08:51:02;94650.69;;;6.67;89.05
6435;BME280;3250;42.694;23.278;2023-12-07T08:53:28;94663.56;;;6.69;88.72
6435;BME280;3250;42.694;23.278;2023-12-07T08:55:54;94651.31;;;6.69;89.31
6435;BME280;3250;42.694;23.278;2023-12-07T08:58:20;94657.19;;;6.78;88.90
6435;BME280;3250;42.694;23.278;2023-12-07T09:00:46;94663.69;;;6.82;88.65
6435;BME280;3250;42.694;23.278;2023-12-07T09:03:12;94650.53;;;6.75;88.38
6435;BME280;3250;42.694;23.278;2023-12-07T09:05:38;94654.03;;;6.82;88.02
6435;BME280;3250;42.694;23.278;2023-12-07T09:08:04;94658.22;;;6.83;88.21
6435;BME280;3250;42.694;23.278;2023-12-07T09:10:30;94661.66;;;6.84;87.76
6435;BME280;3250;42.694;23.278;2023-12-07T09:12:55;94662.63;;;6.76;87.62
6435;BME280;3250;42.694;23.278;2023-12-07T09:15:21;94656.91;;;6.66;87.47
6435;BME280;3250;42.694;23.278;2023-12-07T09:17:47;94661.88;;;6.55;88.04
6435;BME280;3250;42.694;23.278;2023-12-07T09:20:14;94660.25;;;6.54;88.76
6435;BME280;3250;42.694;23.278;2023-12-07T09:22:45;94656.03;;;6.53;88.59
6435;BME280;3250;42.694;23.278;2023-12-07T09:25:11;94656.66;;;6.55;88.45
6435;BME280;3250;42.694;23.278;2023-12-07T09:27:38;94640.69;;;6.43;88.95
6435;BME280;3250;42.694;23.278;2023-12-07T09:30:08;94660.69;;;6.57;89.20
6435;BME280;3250;42.694;23.278;2023-12-07T09:32:40;94655.66;;;6.56;88.46
6435;BME280;3250;42.694;23.278;2023-12-07T09:35:08;94651.81;;;6.58;88.94
6435;BME280;3250;42.694;23.278;2023-12-07T09:37:44;94655.88;;;6.61;89.33
6435;BME280;3250;42.694;23.278;2023-12-07T09:40:20;94653.88;;;6.63;88.88
6435;BME280;3250;42.694;23.278;2023-12-07T09:42:47;94665.94;;;6.57;88.99
6435;BME280;3250;42.694;23.278;2023-12-07T09:45:13;94661.38;;;6.66;89.31
6435;BME280;3250;42.694;23.278;2023-12-07T09:47:45;94661.16;;;6.67;88.43
6435;BME280;3250;42.694;23.278;2023-12-07T09:50:19;94661.81;;;6.76;88.84
6435;BME280;3250;42.694;23.278;2023-12-07T09:52:47;94660.19;;;6.75;88.44
6435;BME280;3250;42.694;23.278;2023-12-07T09:55:16;94662.44;;;6.78;87.58
6435;BME280;3250;42.694;23.278;2023-12-07T09:57:42;94663.19;;;6.72;87.01
6435;BME280;3250;42.694;23.278;2023-12-07T10:00:08;94649.81;;;6.54;86.49
6435;BME280;3250;42.694;23.278;2023-12-07T10:02:38;94669.94;;;6.60;86.90
6435;BME280;3250;42.694;23.278;2023-12-07T10:05:08;94657.84;;;6.52;86.55
6435;BME280;3250;42.694;23.278;2023-12-07T10:07:45;94667.00;;;6.41;87.29
6435;BME280;3250;42.694;23.278;2023-12-07T10:10:14;94662.53;;;6.35;87.88
6435;BME280;3250;42.694;23.278;2023-12-07T10:12:51;94666.09;;;6.28;87.69
6435;BME280;3250;42.694;23.278;2023-12-07T10:15:18;94662.84;;;6.26;88.38
6435;BME280;3250;42.694;23.278;2023-12-07T10:17:49;94657.16;;;6.16;88.30
6435;BME280;3250;42.694;23.278;2023-12-07T10:20:16;94660.97;;;6.13;88.46
6435;BME280;3250;42.694;23.278;2023-12-07T10:22:45;94656.09;;;6.10;88.26
6435;BME280;3250;42.694;23.278;2023-12-07T10:25:10;94655.88;;;6.05;88.38
6435;BME280;3250;42.694;23.278;2023-12-07T10:27:38;94657.81;;;5.96;88.52
6435;BME280;3250;42.694;23.278;2023-12-07T10:30:05;94654.56;;;5.94;89.52
6435;BME280;3250;42.694;23.278;2023-12-07T10:32:35;94645.66;;;5.89;89.81
6435;BME280;3250;42.694;23.278;2023-12-07T10:35:01;94661.81;;;5.99;89.49
6435;BME280;3250;42.694;23.278;2023-12-07T10:37:26;94632.41;;;5.90;89.43
6435;BME280;3250;42.694;23.278;2023-12-07T10:39:53;94659.03;;;6.00;89.13
6435;BME280;3250;42.694;23.278;2023-12-07T10:42:24;94651.63;;;6.04;88.86
6435;BME280;3250;42.694;23.278;2023-12-07T10:44:50;94651.00;;;6.02;88.56
6435;BME280;3250;42.694;23.278;2023-12-07T10:47:18;94654.28;;;5.89;89.00
6435;BME280;3250;42.694;23.278;2023-12-07T10:49:46;94653.75;;;5.94;89.03
6435;BME280;3250;42.694;23.278;2023-12-07T10:52:16;94640.06;;;5.71;88.40
6435;BME280;3250;42.694;23.278;2023-12-07T10:57:24;94659.78;;;5.58;89.20
6435;BME280;3250;42.694;23.278;2023-12-07T10:59:51;94663.03;;;5.60;89.75
6435;BME280;3250;42.694;23.278;2023-12-07T11:02:18;94660.66;;;5.65;90.20
6435;BME280;3250;42.694;23.278;2023-12-07T11:04:45;94669.13;;;5.67;89.48
6435;BME280;3250;42.694;23.278;2023-12-07T11:07:14;94665.94;;;5.72;89.34
6435;BME280;3250;42.694;23.278;2023-12-07T11:09:47;94666.75;;;5.73;89.24
6435;BME280;3250;42.694;23.278;2023-12-07T11:12:18;94649.00;;;5.61;88.69
6435;BME280;3250;42.694;23.278;2023-12-07T11:14:46;94666.53;;;5.67;88.94
6435;BME280;3250;42.694;23.278;2023-12-07T11:17:12;94667.69;;;5.65;88.70
6435;BME280;3250;42.694;23.278;2023-12-07T11:22:08;94655.38;;;5.59;89.18
6435;BME280;3250;42.694;23.278;2023-12-07T11:24:34;94656.81;;;5.61;89.10
6435;BME280;3250;42.694;23.278;2023-12-07T11:27:01;94664.03;;;5.59;88.71
6435;BME280;3250;42.694;23.278;2023-12-07T11:29:31;94664.66;;;5.61;88.60
6435;BME280;3250;42.694;23.278;2023-12-07T11:32:06;94663.84;;;5.61;89.03
6435;BME280;3250;42.694;23.278;2023-12-07T11:37:04;94660.44;;;5.60;89.02
6435;BME280;3250;42.694;23.278;2023-12-07T11:39:35;94657.44;;;5.63;89.28
6435;BME280;3250;42.694;23.278;2023-12-07T11:44:39;94654.28;;;5.68;89.25
6435;BME280;3250;42.694;23.278;2023-12-07T11:47:06;94649.47;;;5.72;89.22
6435;BME280;3250;42.694;23.278;2023-12-07T11:49:32;94645.50;;;5.76;89.51
6435;BME280;3250;42.694;23.278;2023-12-07T11:51:58;94647.94;;;5.77;89.12
6435;BME280;3250;42.694;23.278;2023-12-07T11:54:27;94656.81;;;5.83;88.78
6435;BME280;3250;42.694;23.278;2023-12-07T11:56:54;94637.44;;;5.71;88.50
6435;BME280;3250;42.694;23.278;2023-12-07T11:59:19;94651.38;;;5.78;88.50
6435;BME280;3250;42.694;23.278;2023-12-07T12:01:49;94648.81;;;5.84;88.38
6435;BME280;3250;42.694;23.278;2023-12-07T12:04:15;94648.63;;;5.86;88.42
6435;BME280;3250;42.694;23.278;2023-12-07T12:06:43;94654.03;;;5.84;88.57
6435;BME280;3250;42.694;23.278;2023-12-07T12:09:09;94646.00;;;5.86;88.77
6435;BME280;3250;42.694;23.278;2023-12-07T12:11:35;94650.25;;;5.87;88.60
6435;BME280;3250;42.694;23.278;2023-12-07T12:14:01;94644.56;;;5.83;88.56
6435;BME280;3250;42.694;23.278;2023-12-07T12:16:27;94649.00;;;5.83;88.19
6435;BME280;3250;42.694;23.278;2023-12-07T12:18:52;94651.06;;;5.87;88.19
6435;BME280;3250;42.694;23.278;2023-12-07T12:21:18;94648.81;;;5.84;88.12
6435;BME280;3250;42.694;23.278;2023-12-07T12:23:43;94652.22;;;5.85;88.58
6435;BME280;3250;42.694;23.278;2023-12-07T12:26:09;94656.28;;;5.87;89.08
6435;BME280;3250;42.694;23.278;2023-12-07T12:28:36;94646.19;;;5.84;88.96
6435;BME280;3250;42.694;23.278;2023-12-07T12:31:08;94648.75;;;5.78;88.69
6435;BME280;3250;42.694;23.278;2023-12-07T12:33:36;94653.22;;;5.84;88.52
6435;BME280;3250;42.694;23.278;2023-12-07T12:36:06;94650.16;;;5.80;88.39
6435;BME280;3250;42.694;23.278;2023-12-07T12:38:33;94641.63;;;5.72;88.64
6435;BME280;3250;42.694;23.278;2023-12-07T12:40:58;94644.47;;;5.70;88.48
6435;BME280;3250;42.694;23.278;2023-12-07T12:43:24;94655.16;;;5.75;88.99
6435;BME280;3250;42.694;23.278;2023-12-07T12:45:49;94656.31;;;5.73;88.73
6435;BME280;3250;42.694;23.278;2023-12-07T12:48:15;94657.94;;;5.74;88.77
6435;BME280;3250;42.694;23.278;2023-12-07T12:50:41;94656.94;;;5.75;88.53
6435;BME280;3250;42.694;23.278;2023-12-07T12:53:08;94659.19;;;5.78;88.51
6435;BME280;3250;42.694;23.278;2023-12-07T12:55:37;94664.31;;;5.71;88.40
6435;BME280;3250;42.694;23.278;2023-12-07T12:58:03;94661.31;;;5.67;88.17
6435;BME280;3250;42.694;23.278;2023-12-07T13:00:30;94666.69;;;5.66;88.40
6435;BME280;3250;42.694;23.278;2023-12-07T13:03:02;94652.16;;;5.57;88.35
6435;BME280;3250;42.694;23.278;2023-12-07T13:05:28;94667.28;;;5.47;88.29
6435;BME280;3250;42.694;23.278;2023-12-07T13:07:54;94676.09;;;5.46;88.43
6435;BME280;3250;42.694;23.278;2023-12-07T13:10:19;94680.91;;;5.42;88.38
6435;BME280;3250;42.694;23.278;2023-12-07T13:12:46;94676.84;;;5.40;88.72
6435;BME280;3250;42.694;23.278;2023-12-07T13:15:12;94684.97;;;5.30;88.24
6435;BME280;3250;42.694;23.278;2023-12-07T13:17:41;94656.00;;;5.10;88.74
6435;BME280;3250;42.694;23.278;2023-12-07T13:20:07;94683.03;;;5.17;89.09
6435;BME280;3250;42.694;23.278;2023-12-07T13:22:42;94676.34;;;5.15;89.28
6435;BME280;3250;42.694;23.278;2023-12-07T13:25:12;94677.91;;;5.09;89.38
6435;BME280;3250;42.694;23.278;2023-12-07T13:27:39;94683.66;;;5.05;89.11
6435;BME280;3250;42.694;23.278;2023-12-07T13:30:06;94674.94;;;4.98;89.44
6435;BME280;3250;42.694;23.278;2023-12-07T13:32:33;94689.84;;;5.04;89.65
6435;BME280;3250;42.694;23.278;2023-12-07T13:35:00;94686.34;;;4.97;89.75
6435;BME280;3250;42.694;23.278;2023-12-07T13:37:26;94698.06;;;5.01;89.48
6435;BME280;3250;42.694;23.278;2023-12-07T13:39:51;94701.19;;;4.96;89.34
6435;BME280;3250;42.694;23.278;2023-12-07T13:42:24;94699.94;;;4.92;89.58
6435;BME280;3250;42.694;23.278;2023-12-07T13:44:55;94707.94;;;4.90;89.68
6435;BME280;3250;42.694;23.278;2023-12-07T13:47:26;94708.56;;;4.92;89.79